KEB weather

Nanwalek Airport
Nanwalek, Alaska, United States

Public forecast

Using degrees Fahrenheit for public forecast. Weather courtesy of forecast.io.

Closest aviation weather report (METAR) to Nanwalek Airport

Closest report is Seldovia Airport, 8.7 nm (16.0 km) NE. Retrieved 2020/04/08 18:53 UTC (10 minutes ago):

PASO 081853Z AUTO 01005KT 10SM CLR M01/M12 A2979 RMK AO2 SLP086 T10061117 TSNO

Closest aviation forecast (TAF) to Nanwalek Airport

Closest forecast is Homer Airport, 22.3 nm (41.3 km) NE. Retrieved 2020/04/08 18:45 UTC (18 minutes ago):

TAF PAHO 081742Z 0818/0918 VRB06KT P6SM FEW060 SCT090 FM082100 27011G19KT P6SM SKC FM090800 VRB05KT P6SM SKC